sensor_id;sensor_type;location;lat;lon;timestamp;pressure;altitude;pressure_sealevel;temperature;humidity
5296;BME280;2670;42.720;23.336;2023-02-15T00:01:48;-22473.22;;;1.10;100.00
5296;BME280;2670;42.720;23.336;2023-02-15T00:04:16;-22471.13;;;1.03;100.00
5296;BME280;2670;42.720;23.336;2023-02-15T00:06:46;-22468.59;;;0.94;100.00
5296;BME280;2670;42.720;23.336;2023-02-15T00:09:13;-22468.75;;;0.95;100.00
5296;BME280;2670;42.720;23.336;2023-02-15T00:11:40;-22470.41;;;1.01;100.00
5296;BME280;2670;42.720;23.336;2023-02-15T00:14:09;-22467.53;;;0.91;100.00
5296;BME280;2670;42.720;23.336;2023-02-15T00:16:37;-22469.50;;;0.97;100.00
5296;BME280;2670;42.720;23.336;2023-02-15T00:19:06;-22465.31;;;0.83;100.00
5296;BME280;2670;42.720;23.336;2023-02-15T00:21:35;-22466.06;;;0.86;100.00
5296;BME280;2670;42.720;23.336;2023-02-15T00:24:04;-22466.81;;;0.88;100.00
5296;BME280;2670;42.720;23.336;2023-02-15T00:26:31;-22469.34;;;0.97;100.00
5296;BME280;2670;42.720;23.336;2023-02-15T00:28:58;-22469.66;;;0.98;100.00
5296;BME280;2670;42.720;23.336;2023-02-15T00:31:26;-22466.06;;;0.86;100.00
5296;BME280;2670;42.720;23.336;2023-02-15T00:33:53;-22466.81;;;0.88;100.00
5296;BME280;2670;42.720;23.336;2023-02-15T00:36:21;-22466.06;;;0.86;100.00
5296;BME280;2670;42.720;23.336;2023-02-15T00:38:48;-22464.09;;;0.79;100.00
5296;BME280;2670;42.720;23.336;2023-02-15T00:41:15;-22466.06;;;0.86;100.00
5296;BME280;2670;42.720;23.336;2023-02-15T00:43:41;-22464.41;;;0.80;100.00
5296;BME280;2670;42.720;23.336;2023-02-15T00:46:08;-22466.34;;;0.87;100.00
5296;BME280;2670;42.720;23.336;2023-02-15T00:48:35;-22463.06;;;0.76;100.00
5296;BME280;2670;42.720;23.336;2023-02-15T00:51:02;-22462.91;;;0.75;100.00
5296;BME280;2670;42.720;23.336;2023-02-15T00:53:30;-22462.00;;;0.72;100.00
5296;BME280;2670;42.720;23.336;2023-02-15T00:55:57;-22463.94;;;0.79;100.00
5296;BME280;2670;42.720;23.336;2023-02-15T00:58:24;-22465.75;;;0.85;100.00
5296;BME280;2670;42.720;23.336;2023-02-15T01:00:51;-22462.00;;;0.72;100.00
5296;BME280;2670;42.720;23.336;2023-02-15T01:03:19;-22462.31;;;0.73;100.00
5296;BME280;2670;42.720;23.336;2023-02-15T01:05:47;-22464.25;;;0.80;100.00
5296;BME280;2670;42.720;23.336;2023-02-15T01:08:15;-22462.91;;;0.75;100.00
5296;BME280;2670;42.720;23.336;2023-02-15T01:10:43;-22463.34;;;0.77;100.00
5296;BME280;2670;42.720;23.336;2023-02-15T01:13:13;-22459.16;;;0.62;100.00
5296;BME280;2670;42.720;23.336;2023-02-15T01:15:40;-22461.41;;;0.70;100.00
5296;BME280;2670;42.720;23.336;2023-02-15T01:18:06;-22460.50;;;0.67;100.00
5296;BME280;2670;42.720;23.336;2023-02-15T01:20:36;-22460.66;;;0.67;100.00
5296;BME280;2670;42.720;23.336;2023-02-15T01:23:05;-22464.09;;;0.79;100.00
5296;BME280;2670;42.720;23.336;2023-02-15T01:25:33;-22460.50;;;0.67;100.00
5296;BME280;2670;42.720;23.336;2023-02-15T01:28:02;-22461.41;;;0.70;100.00
5296;BME280;2670;42.720;23.336;2023-02-15T01:30:29;-22459.47;;;0.63;100.00
5296;BME280;2670;42.720;23.336;2023-02-15T01:32:56;-22460.97;;;0.68;100.00
5296;BME280;2670;42.720;23.336;2023-02-15T01:35:23;-22461.13;;;0.69;100.00
5296;BME280;2670;42.720;23.336;2023-02-15T01:37:49;-22462.59;;;0.74;100.00
5296;BME280;2670;42.720;23.336;2023-02-15T01:40:17;-22462.91;;;0.75;100.00
5296;BME280;2670;42.720;23.336;2023-02-15T01:42:44;-22460.97;;;0.68;100.00
5296;BME280;2670;42.720;23.336;2023-02-15T01:45:19;-22461.25;;;0.69;100.00
5296;BME280;2670;42.720;23.336;2023-02-15T01:47:50;-22459.00;;;0.62;100.00
5296;BME280;2670;42.720;23.336;2023-02-15T01:50:22;-22460.50;;;0.67;100.00
5296;BME280;2670;42.720;23.336;2023-02-15T01:52:53;-22459.75;;;0.64;100.00
5296;BME280;2670;42.720;23.336;2023-02-15T01:55:22;-22461.41;;;0.70;100.00
5296;BME280;2670;42.720;23.336;2023-02-15T01:57:50;-22458.72;;;0.61;100.00
5296;BME280;2670;42.720;23.336;2023-02-15T02:00:20;-22460.38;;;0.66;100.00
5296;BME280;2670;42.720;23.336;2023-02-15T02:02:49;-22456.94;;;0.55;100.00
5296;BME280;2670;42.720;23.336;2023-02-15T02:05:17;-22462.31;;;0.73;100.00
5296;BME280;2670;42.720;23.336;2023-02-15T02:07:45;-22458.28;;;0.59;100.00
5296;BME280;2670;42.720;23.336;2023-02-15T02:10:16;-22458.88;;;0.61;100.00
5296;BME280;2670;42.720;23.336;2023-02-15T02:12:45;-22459.75;;;0.64;100.00
5296;BME280;2670;42.720;23.336;2023-02-15T02:15:13;-22459.31;;;0.63;100.00
5296;BME280;2670;42.720;23.336;2023-02-15T02:17:54;-22460.50;;;0.67;100.00
5296;BME280;2670;42.720;23.336;2023-02-15T02:20:59;-22456.63;;;0.54;100.00
5296;BME280;2670;42.720;23.336;2023-02-15T02:23:40;-22459.31;;;0.63;100.00
5296;BME280;2670;42.720;23.336;2023-02-15T02:35:40;-22456.16;;;0.52;100.00
5296;BME280;2670;42.720;23.336;2023-02-15T02:38:13;-22454.81;;;0.47;100.00
5296;BME280;2670;42.720;23.336;2023-02-15T02:40:51;-22457.66;;;0.57;100.00
5296;BME280;2670;42.720;23.336;2023-02-15T02:43:22;-22456.63;;;0.54;100.00
5296;BME280;2670;42.720;23.336;2023-02-15T02:45:54;-22457.06;;;0.55;100.00
5296;BME280;2670;42.720;23.336;2023-02-15T02:48:26;-22457.38;;;0.56;100.00
5296;BME280;2670;42.720;23.336;2023-02-15T02:50:55;-22456.63;;;0.54;100.00
5296;BME280;2670;42.720;23.336;2023-02-15T02:53:22;-22454.69;;;0.47;100.00
5296;BME280;2670;42.720;23.336;2023-02-15T02:55:52;-22456.63;;;0.54;100.00
5296;BME280;2670;42.720;23.336;2023-02-15T02:58:23;-22457.81;;;0.58;100.00
5296;BME280;2670;42.720;23.336;2023-02-15T03:00:54;-22456.63;;;0.54;100.00
5296;BME280;2670;42.720;23.336;2023-02-15T03:03:25;-22456.78;;;0.54;100.00
5296;BME280;2670;42.720;23.336;2023-02-15T03:05:57;-22454.06;;;0.45;100.00
5296;BME280;2670;42.720;23.336;2023-02-15T03:08:31;-22452.88;;;0.41;100.00
5296;BME280;2670;42.720;23.336;2023-02-15T03:11:03;-22458.41;;;0.60;100.00
5296;BME280;2670;42.720;23.336;2023-02-15T03:13:31;-22458.56;;;0.60;100.00
5296;BME280;2670;42.720;23.336;2023-02-15T03:16:00;-22460.22;;;0.66;100.00
5296;BME280;2670;42.720;23.336;2023-02-15T03:18:51;-22459.63;;;0.64;100.00
5296;BME280;2670;42.720;23.336;2023-02-15T03:21:30;-22459.16;;;0.62;100.00
5296;BME280;2670;42.720;23.336;2023-02-15T03:24:00;-22460.97;;;0.68;100.00
5296;BME280;2670;42.720;23.336;2023-02-15T03:26:32;-22458.41;;;0.60;100.00
5296;BME280;2670;42.720;23.336;2023-02-15T03:29:00;-22460.06;;;0.65;100.00
5296;BME280;2670;42.720;23.336;2023-02-15T03:34:50;-22458.56;;;0.60;100.00
5296;BME280;2670;42.720;23.336;2023-02-15T03:37:25;-22462.59;;;0.74;100.00
5296;BME280;2670;42.720;23.336;2023-02-15T03:39:56;-22462.16;;;0.72;100.00
5296;BME280;2670;42.720;23.336;2023-02-15T03:42:48;-22464.09;;;0.79;100.00
5296;BME280;2670;42.720;23.336;2023-02-15T03:45:23;-22461.56;;;0.70;100.00
5296;BME280;2670;42.720;23.336;2023-02-15T03:47:52;-22462.47;;;0.73;100.00
5296;BME280;2670;42.720;23.336;2023-02-15T03:50:24;-22462.00;;;0.72;100.00
5296;BME280;2670;42.720;23.336;2023-02-15T03:53:14;-22461.41;;;0.70;100.00
5296;BME280;2670;42.720;23.336;2023-02-15T03:55:41;-22462.31;;;0.73;100.00
5296;BME280;2670;42.720;23.336;2023-02-15T03:58:08;-22461.72;;;0.71;100.00
5296;BME280;2670;42.720;23.336;2023-02-15T04:00:56;-22465.00;;;0.82;100.00
5296;BME280;2670;42.720;23.336;2023-02-15T04:03:43;-22463.66;;;0.78;100.00
5296;BME280;2670;42.720;23.336;2023-02-15T04:06:11;-22467.41;;;0.90;100.00
5296;BME280;2670;42.720;23.336;2023-02-15T04:08:40;-22469.66;;;0.98;100.00
5296;BME280;2670;42.720;23.336;2023-02-15T04:11:24;-22469.34;;;0.97;100.00
5296;BME280;2670;42.720;23.336;2023-02-15T04:13:51;-22467.69;;;0.91;100.00
5296;BME280;2670;42.720;23.336;2023-02-15T04:16:21;-22467.25;;;0.90;100.00
5296;BME280;2670;42.720;23.336;2023-02-15T04:18:47;-22469.03;;;0.96;100.00
5296;BME280;2670;42.720;23.336;2023-02-15T04:21:31;-22471.75;;;1.05;100.00
5296;BME280;2670;42.720;23.336;2023-02-15T04:24:17;-22469.50;;;0.97;100.00
5296;BME280;2670;42.720;23.336;2023-02-15T04:27:02;-22473.53;;;1.11;100.00
5296;BME280;2670;42.720;23.336;2023-02-15T04:29:30;-22475.78;;;1.19;100.00
5296;BME280;2670;42.720;23.336;2023-02-15T04:31:58;-22473.22;;;1.10;100.00
5296;BME280;2670;42.720;23.336;2023-02-15T04:34:25;-22472.63;;;1.08;100.00
5296;BME280;2670;42.720;23.336;2023-02-15T04:36:52;-22471.88;;;1.06;100.00
5296;BME280;2670;42.720;23.336;2023-02-15T04:39:20;-22476.06;;;1.20;100.00
5296;BME280;2670;42.720;23.336;2023-02-15T04:41:47;-22474.59;;;1.15;100.00
5296;BME280;2670;42.720;23.336;2023-02-15T04:44:14;-22476.38;;;1.21;100.00
5296;BME280;2670;42.720;23.336;2023-02-15T04:46:41;-22478.16;;;1.27;100.00
5296;BME280;2670;42.720;23.336;2023-02-15T04:49:08;-22480.56;;;1.35;100.00
5296;BME280;2670;42.720;23.336;2023-02-15T04:51:35;-22475.19;;;1.17;100.00
5296;BME280;2670;42.720;23.336;2023-02-15T04:54:02;-22478.47;;;1.28;100.00
5296;BME280;2670;42.720;23.336;2023-02-15T04:56:31;-22478.63;;;1.29;100.00
5296;BME280;2670;42.720;23.336;2023-02-15T04:58:59;-22475.94;;;1.19;100.00
5296;BME280;2670;42.720;23.336;2023-02-15T05:01:26;-22475.78;;;1.19;100.00
5296;BME280;2670;42.720;23.336;2023-02-15T05:03:53;-22476.38;;;1.21;100.00
5296;BME280;2670;42.720;23.336;2023-02-15T05:06:20;-22481.47;;;1.38;100.00
5296;BME280;2670;42.720;23.336;2023-02-15T05:11:56;-22479.06;;;1.30;100.00
5296;BME280;2670;42.720;23.336;2023-02-15T05:14:22;-22478.03;;;1.27;100.00
5296;BME280;2670;42.720;23.336;2023-02-15T05:16:49;-22479.97;;;1.33;100.00
5296;BME280;2670;42.720;23.336;2023-02-15T05:19:16;-22481.63;;;1.39;100.00
5296;BME280;2670;42.720;23.336;2023-02-15T05:21:43;-22480.13;;;1.34;100.00
5296;BME280;2670;42.720;23.336;2023-02-15T05:24:10;-22480.56;;;1.35;100.00
5296;BME280;2670;42.720;23.336;2023-02-15T05:26:50;-22480.72;;;1.36;100.00
5296;BME280;2670;42.720;23.336;2023-02-15T05:29:36;-22480.41;;;1.35;100.00
5296;BME280;2670;42.720;23.336;2023-02-15T05:32:02;-22482.34;;;1.41;100.00
5296;BME280;2670;42.720;23.336;2023-02-15T05:34:30;-22480.13;;;1.34;100.00
5296;BME280;2670;42.720;23.336;2023-02-15T05:36:57;-22482.22;;;1.41;100.00
5296;BME280;2670;42.720;23.336;2023-02-15T05:39:23;-22481.00;;;1.37;100.00
5296;BME280;2670;42.720;23.336;2023-02-15T05:41:50;-22481.63;;;1.39;100.00
5296;BME280;2670;42.720;23.336;2023-02-15T05:44:17;-22482.66;;;1.42;100.00
5296;BME280;2670;42.720;23.336;2023-02-15T05:46:45;-22479.81;;;1.33;100.00
5296;BME280;2670;42.720;23.336;2023-02-15T05:49:12;-22481.91;;;1.40;100.00
5296;BME280;2670;42.720;23.336;2023-02-15T05:51:39;-22484.00;;;1.47;100.00
5296;BME280;2670;42.720;23.336;2023-02-15T05:54:05;-22483.56;;;1.45;100.00
5296;BME280;2670;42.720;23.336;2023-02-15T05:56:32;-22484.31;;;1.48;100.00
5296;BME280;2670;42.720;23.336;2023-02-15T05:58:59;-22484.00;;;1.47;100.00
5296;BME280;2670;42.720;23.336;2023-02-15T06:01:26;-22483.09;;;1.44;100.00
5296;BME280;2670;42.720;23.336;2023-02-15T06:03:54;-22487.91;;;1.60;100.00
5296;BME280;2670;42.720;23.336;2023-02-15T06:06:21;-22486.09;;;1.54;100.00
5296;BME280;2670;42.720;23.336;2023-02-15T06:08:48;-22486.09;;;1.54;100.00
5296;BME280;2670;42.720;23.336;2023-02-15T06:11:15;-22485.19;;;1.51;100.00
5296;BME280;2670;42.720;23.336;2023-02-15T06:13:42;-22488.03;;;1.61;100.00
5296;BME280;2670;42.720;23.336;2023-02-15T06:19:21;-22489.25;;;1.65;100.00
5296;BME280;2670;42.720;23.336;2023-02-15T06:21:48;-22490.88;;;1.70;100.00
5296;BME280;2670;42.720;23.336;2023-02-15T06:24:15;-22492.81;;;1.77;100.00
5296;BME280;2670;42.720;23.336;2023-02-15T06:26:41;-22488.94;;;1.64;100.00
5296;BME280;2670;42.720;23.336;2023-02-15T06:29:09;-22492.69;;;1.77;100.00
5296;BME280;2670;42.720;23.336;2023-02-15T06:31:36;-22493.13;;;1.78;100.00
5296;BME280;2670;42.720;23.336;2023-02-15T06:34:02;-22494.78;;;1.84;100.00
5296;BME280;2670;42.720;23.336;2023-02-15T06:36:31;-22493.13;;;1.78;100.00
5296;BME280;2670;42.720;23.336;2023-02-15T06:38:58;-22492.06;;;1.74;100.00
5296;BME280;2670;42.720;23.336;2023-02-15T06:41:25;-22492.06;;;1.74;100.00
5296;BME280;2670;42.720;23.336;2023-02-15T06:43:51;-22493.13;;;1.78;100.00
5296;BME280;2670;42.720;23.336;2023-02-15T06:46:18;-22494.03;;;1.81;100.00
5296;BME280;2670;42.720;23.336;2023-02-15T06:48:45;-22495.97;;;1.88;100.00
5296;BME280;2670;42.720;23.336;2023-02-15T06:51:12;-22497.75;;;1.94;100.00
5296;BME280;2670;42.720;23.336;2023-02-15T06:53:40;-22498.97;;;1.98;100.00
5296;BME280;2670;42.720;23.336;2023-02-15T06:56:08;-22498.66;;;1.97;100.00
5296;BME280;2670;42.720;23.336;2023-02-15T06:58:36;-22498.06;;;1.95;100.00
5296;BME280;2670;42.720;23.336;2023-02-15T07:01:03;-22505.22;;;2.19;100.00
5296;BME280;2670;42.720;23.336;2023-02-15T07:03:30;-22501.06;;;2.05;100.00
5296;BME280;2670;42.720;23.336;2023-02-15T07:05:58;-22499.56;;;2.00;100.00
5296;BME280;2670;42.720;23.336;2023-02-15T07:08:26;-22500.00;;;2.02;100.00
5296;BME280;2670;42.720;23.336;2023-02-15T07:10:55;-22506.13;;;2.22;100.00
5296;BME280;2670;42.720;23.336;2023-02-15T07:13:42;-22508.06;;;2.29;100.00
5296;BME280;2670;42.720;23.336;2023-02-15T07:16:08;-22506.56;;;2.24;100.00
5296;BME280;2670;42.720;23.336;2023-02-15T07:18:36;-22505.97;;;2.22;100.00
5296;BME280;2670;42.720;23.336;2023-02-15T07:21:03;-22507.19;;;2.26;100.00
5296;BME280;2670;42.720;23.336;2023-02-15T07:23:30;-22508.66;;;2.31;100.00
5296;BME280;2670;42.720;23.336;2023-02-15T07:25:58;-22510.47;;;2.37;100.00
5296;BME280;2670;42.720;23.336;2023-02-15T07:28:25;-22509.88;;;2.35;100.00
5296;BME280;2670;42.720;23.336;2023-02-15T07:30:52;-22508.66;;;2.31;100.00
5296;BME280;2670;42.720;23.336;2023-02-15T07:33:19;-22511.50;;;2.41;100.00
5296;BME280;2670;42.720;23.336;2023-02-15T07:35:54;-22512.41;;;2.44;100.00
5296;BME280;2670;42.720;23.336;2023-02-15T07:38:22;-22514.34;;;2.50;100.00
5296;BME280;2670;42.720;23.336;2023-02-15T07:40:49;-22514.81;;;2.52;100.00
5296;BME280;2670;42.720;23.336;2023-02-15T07:43:17;-22513.59;;;2.48;100.00
5296;BME280;2670;42.720;23.336;2023-02-15T07:45:44;-22513.16;;;2.46;100.00
5296;BME280;2670;42.720;23.336;2023-02-15T07:48:10;-22515.53;;;2.55;100.00
5296;BME280;2670;42.720;23.336;2023-02-15T07:50:37;-22512.84;;;2.45;100.00
5296;BME280;2670;42.720;23.336;2023-02-15T07:53:04;-22514.81;;;2.52;100.00
5296;BME280;2670;42.720;23.336;2023-02-15T07:55:31;-22520.94;;;2.73;100.00
5296;BME280;2670;42.720;23.336;2023-02-15T07:57:58;-22523.16;;;2.81;100.00
5296;BME280;2670;42.720;23.336;2023-02-15T08:00:26;-22522.28;;;2.78;100.00
5296;BME280;2670;42.720;23.336;2023-02-15T08:02:55;-22521.06;;;2.73;100.00
5296;BME280;2670;42.720;23.336;2023-02-15T08:05:41;-22526.59;;;2.92;100.00
5296;BME280;2670;42.720;23.336;2023-02-15T08:08:08;-22527.50;;;2.95;100.00
5296;BME280;2670;42.720;23.336;2023-02-15T08:10:57;-22529.28;;;3.02;100.00
5296;BME280;2670;42.720;23.336;2023-02-15T08:13:42;-22526.91;;;2.93;100.00
5296;BME280;2670;42.720;23.336;2023-02-15T08:16:21;-22525.41;;;2.88;100.00
5296;BME280;2670;42.720;23.336;2023-02-15T08:18:48;-22526.91;;;2.93;100.00
5296;BME280;2670;42.720;23.336;2023-02-15T08:21:15;-22527.66;;;2.96;100.00
5296;BME280;2670;42.720;23.336;2023-02-15T08:23:42;-22527.50;;;2.95;100.00
5296;BME280;2670;42.720;23.336;2023-02-15T08:26:08;-22526.75;;;2.93;100.00
5296;BME280;2670;42.720;23.336;2023-02-15T08:28:35;-22527.66;;;2.96;100.00
5296;BME280;2670;42.720;23.336;2023-02-15T08:31:06;-22527.66;;;2.96;100.00
5296;BME280;2670;42.720;23.336;2023-02-15T08:33:35;-22524.06;;;2.84;100.00
5296;BME280;2670;42.720;23.336;2023-02-15T08:36:03;-22524.06;;;2.84;100.00
5296;BME280;2670;42.720;23.336;2023-02-15T08:38:30;-22528.38;;;2.98;100.00
5296;BME280;2670;42.720;23.336;2023-02-15T08:40:57;-22535.25;;;3.22;100.00
5296;BME280;2670;42.720;23.336;2023-02-15T08:43:24;-22532.72;;;3.13;100.00
5296;BME280;2670;42.720;23.336;2023-02-15T08:45:51;-22534.22;;;3.18;100.00
5296;BME280;2670;42.720;23.336;2023-02-15T08:48:17;-22534.81;;;3.20;100.00
5296;BME280;2670;42.720;23.336;2023-02-15T08:50:45;-22536.31;;;3.25;100.00
5296;BME280;2670;42.720;23.336;2023-02-15T08:53:12;-22536.31;;;3.25;100.00
5296;BME280;2670;42.720;23.336;2023-02-15T08:55:39;-22537.94;;;3.31;100.00
5296;BME280;2670;42.720;23.336;2023-02-15T08:58:06;-22541.38;;;3.43;100.00
5296;BME280;2670;42.720;23.336;2023-02-15T09:00:33;-22540.19;;;3.39;100.00
5296;BME280;2670;42.720;23.336;2023-02-15T09:02:59;-22543.31;;;3.49;100.00
5296;BME280;2670;42.720;23.336;2023-02-15T09:05:26;-22543.31;;;3.49;100.00
5296;BME280;2670;42.720;23.336;2023-02-15T09:07:54;-22548.25;;;3.66;100.00
5296;BME280;2670;42.720;23.336;2023-02-15T09:10:21;-22551.09;;;3.76;100.00
5296;BME280;2670;42.720;23.336;2023-02-15T09:12:48;-22551.97;;;3.79;99.95
5296;BME280;2670;42.720;23.336;2023-02-15T09:15:16;-22553.91;;;3.86;100.00
5296;BME280;2670;42.720;23.336;2023-02-15T09:17:43;-22556.16;;;3.93;100.00
5296;BME280;2670;42.720;23.336;2023-02-15T09:20:10;-22554.22;;;3.87;98.97
5296;BME280;2670;42.720;23.336;2023-02-15T09:22:37;-22555.84;;;3.92;99.41
5296;BME280;2670;42.720;23.336;2023-02-15T09:25:06;-22557.06;;;3.96;98.64
5296;BME280;2670;42.720;23.336;2023-02-15T09:27:32;-22557.94;;;3.99;99.00
5296;BME280;2670;42.720;23.336;2023-02-15T09:29:59;-22560.63;;;4.09;98.76
5296;BME280;2670;42.720;23.336;2023-02-15T09:32:26;-22564.66;;;4.22;97.35
5296;BME280;2670;42.720;23.336;2023-02-15T09:34:53;-22563.31;;;4.18;96.86
5296;BME280;2670;42.720;23.336;2023-02-15T09:37:19;-22566.16;;;4.28;96.48
5296;BME280;2670;42.720;23.336;2023-02-15T09:39:46;-22563.91;;;4.20;96.86
5296;BME280;2670;42.720;23.336;2023-02-15T09:42:29;-22563.63;;;4.19;96.87
5296;BME280;2670;42.720;23.336;2023-02-15T09:45:16;-22562.72;;;4.16;96.52
5296;BME280;2670;42.720;23.336;2023-02-15T09:48:04;-22564.34;;;4.21;95.96
5296;BME280;2670;42.720;23.336;2023-02-15T09:50:37;-22566.59;;;4.29;95.37
5296;BME280;2670;42.720;23.336;2023-02-15T09:53:24;-22561.97;;;4.13;96.25
5296;BME280;2670;42.720;23.336;2023-02-15T09:56:02;-22566.44;;;4.29;96.02
5296;BME280;2670;42.720;23.336;2023-02-15T09:58:39;-22569.59;;;4.39;95.48
5296;BME280;2670;42.720;23.336;2023-02-15T10:01:14;-22567.63;;;4.33;95.92
5296;BME280;2670;42.720;23.336;2023-02-15T10:04:00;-22567.34;;;4.32;94.71
5296;BME280;2670;42.720;23.336;2023-02-15T10:06:36;-22566.91;;;4.30;94.51
5296;BME280;2670;42.720;23.336;2023-02-15T10:09:30;-22565.41;;;4.25;95.10
5296;BME280;2670;42.720;23.336;2023-02-15T10:12:10;-22567.78;;;4.33;95.09
5296;BME280;2670;42.720;23.336;2023-02-15T10:14:57;-22570.31;;;4.42;94.40
5296;BME280;2670;42.720;23.336;2023-02-15T10:17:44;-22572.72;;;4.50;94.05
5296;BME280;2670;42.720;23.336;2023-02-15T10:20:23;-22575.09;;;4.58;93.19
5296;BME280;2670;42.720;23.336;2023-02-15T10:23:09;-22575.25;;;4.59;92.83
5296;BME280;2670;42.720;23.336;2023-02-15T10:25:43;-22574.50;;;4.56;92.96
5296;BME280;2670;42.720;23.336;2023-02-15T10:28:16;-22580.63;;;4.77;92.66
5296;BME280;2670;42.720;23.336;2023-02-15T10:30:47;-22582.69;;;4.84;91.13
5296;BME280;2670;42.720;23.336;2023-02-15T10:33:26;-22584.03;;;4.89;91.14
5296;BME280;2670;42.720;23.336;2023-02-15T10:36:08;-22581.50;;;4.80;91.08
5296;BME280;2670;42.720;23.336;2023-02-15T10:38:41;-22577.94;;;4.68;91.27
5296;BME280;2670;42.720;23.336;2023-02-15T10:41:20;-22578.81;;;4.71;90.80
5296;BME280;2670;42.720;23.336;2023-02-15T10:44:03;-22582.69;;;4.84;90.46
5296;BME280;2670;42.720;23.336;2023-02-15T10:46:48;-22584.94;;;4.92;91.15
5296;BME280;2670;42.720;23.336;2023-02-15T10:49:26;-22583.59;;;4.87;91.87
5296;BME280;2670;42.720;23.336;2023-02-15T10:52:10;-22581.34;;;4.80;91.73
5296;BME280;2670;42.720;23.336;2023-02-15T10:54:44;-22582.41;;;4.83;91.46
5296;BME280;2670;42.720;23.336;2023-02-15T10:57:19;-22584.50;;;4.90;91.50
5296;BME280;2670;42.720;23.336;2023-02-15T10:59:59;-22587.31;;;5.00;90.29
5296;BME280;2670;42.720;23.336;2023-02-15T11:02:37;-22586.56;;;4.97;90.39
5296;BME280;2670;42.720;23.336;2023-02-15T11:05:32;-22590.91;;;5.12;89.77
5296;BME280;2670;42.720;23.336;2023-02-15T11:08:06;-22592.69;;;5.18;88.61
5296;BME280;2670;42.720;23.336;2023-02-15T11:10:36;-22590.75;;;5.12;89.05
5296;BME280;2670;42.720;23.336;2023-02-15T11:13:08;-22592.53;;;5.18;89.17
5296;BME280;2670;42.720;23.336;2023-02-15T11:15:39;-22591.66;;;5.15;88.47
5296;BME280;2670;42.720;23.336;2023-02-15T11:18:13;-22598.34;;;5.38;89.04
5296;BME280;2670;42.720;23.336;2023-02-15T11:20:46;-22598.34;;;5.38;88.15
5296;BME280;2670;42.720;23.336;2023-02-15T11:23:16;-22594.91;;;5.26;87.97
5296;BME280;2670;42.720;23.336;2023-02-15T11:25:46;-22594.91;;;5.26;89.32
5296;BME280;2670;42.720;23.336;2023-02-15T11:28:23;-22593.28;;;5.20;88.38
5296;BME280;2670;42.720;23.336;2023-02-15T11:30:54;-22597.59;;;5.35;87.96
5296;BME280;2670;42.720;23.336;2023-02-15T11:33:26;-22594.91;;;5.26;88.43
5296;BME280;2670;42.720;23.336;2023-02-15T11:35:59;-22593.44;;;5.21;88.15
5296;BME280;2670;42.720;23.336;2023-02-15T11:38:29;-22592.84;;;5.19;88.22
5296;BME280;2670;42.720;23.336;2023-02-15T11:41:01;-22590.44;;;5.11;88.61
5296;BME280;2670;42.720;23.336;2023-02-15T11:43:33;-22593.28;;;5.20;88.76
5296;BME280;2670;42.720;23.336;2023-02-15T11:46:02;-22594.78;;;5.25;88.72
5296;BME280;2670;42.720;23.336;2023-02-15T11:48:31;-22597.16;;;5.34;88.40
5296;BME280;2670;42.720;23.336;2023-02-15T11:50:59;-22598.63;;;5.39;87.13
5296;BME280;2670;42.720;23.336;2023-02-15T11:53:29;-22597.16;;;5.34;88.56
5296;BME280;2670;42.720;23.336;2023-02-15T11:55:58;-22601.91;;;5.50;87.07
5296;BME280;2670;42.720;23.336;2023-02-15T11:58:32;-22601.16;;;5.47;87.40
5296;BME280;2670;42.720;23.336;2023-02-15T12:01:21;-22604.31;;;5.58;86.39
5296;BME280;2670;42.720;23.336;2023-02-15T12:04:20;-22604.16;;;5.58;86.11
5296;BME280;2670;42.720;23.336;2023-02-15T12:06:53;-22602.06;;;5.50;86.43
5296;BME280;2670;42.720;23.336;2023-02-15T12:09:27;-22607.44;;;5.69;85.60
5296;BME280;2670;42.720;23.336;2023-02-15T12:12:20;-22605.66;;;5.63;85.25
5296;BME280;2670;42.720;23.336;2023-02-15T12:14:48;-22605.34;;;5.62;85.46
5296;BME280;2670;42.720;23.336;2023-02-15T12:17:16;-22605.34;;;5.62;84.91
5296;BME280;2670;42.720;23.336;2023-02-15T12:19:44;-22603.72;;;5.56;86.11
5296;BME280;2670;42.720;23.336;2023-02-15T12:22:21;-22603.41;;;5.55;84.99
5296;BME280;2670;42.720;23.336;2023-02-15T12:24:50;-22601.03;;;5.47;86.04
5296;BME280;2670;42.720;23.336;2023-02-15T12:27:19;-22601.63;;;5.49;86.34
5296;BME280;2670;42.720;23.336;2023-02-15T12:29:50;-22604.16;;;5.58;86.90
5296;BME280;2670;42.720;23.336;2023-02-15T12:32:19;-22603.13;;;5.54;86.48
5296;BME280;2670;42.720;23.336;2023-02-15T12:34:50;-22605.19;;;5.61;86.70
5296;BME280;2670;42.720;23.336;2023-02-15T12:37:22;-22608.31;;;5.72;85.43
5296;BME280;2670;42.720;23.336;2023-02-15T12:39:54;-22610.56;;;5.80;85.47
5296;BME280;2670;42.720;23.336;2023-02-15T12:42:22;-22603.72;;;5.56;84.93
5296;BME280;2670;42.720;23.336;2023-02-15T12:44:55;-22602.97;;;5.54;85.47
5296;BME280;2670;42.720;23.336;2023-02-15T12:47:22;-22605.66;;;5.63;84.87
5296;BME280;2670;42.720;23.336;2023-02-15T12:50:13;-22605.94;;;5.64;85.35
5296;BME280;2670;42.720;23.336;2023-02-15T12:52:45;-22607.88;;;5.70;84.57
5296;BME280;2670;42.720;23.336;2023-02-15T12:55:20;-22604.16;;;5.58;83.83
5296;BME280;2670;42.720;23.336;2023-02-15T12:57:47;-22605.34;;;5.62;84.54
5296;BME280;2670;42.720;23.336;2023-02-15T13:00:26;-22607.44;;;5.69;84.89
5296;BME280;2670;42.720;23.336;2023-02-15T13:03:16;-22611.00;;;5.81;84.54
5296;BME280;2670;42.720;23.336;2023-02-15T13:05:53;-22612.50;;;5.86;83.69
5296;BME280;2670;42.720;23.336;2023-02-15T13:08:26;-22611.00;;;5.81;83.29
5296;BME280;2670;42.720;23.336;2023-02-15T13:10:56;-22611.59;;;5.83;83.66
5296;BME280;2670;42.720;23.336;2023-02-15T13:13:26;-22613.09;;;5.88;84.12
5296;BME280;2670;42.720;23.336;2023-02-15T13:15:56;-22613.84;;;5.91;82.33
5296;BME280;2670;42.720;23.336;2023-02-15T13:18:30;-22614.72;;;5.94;82.34
5296;BME280;2670;42.720;23.336;2023-02-15T13:21:10;-22614.72;;;5.94;82.50
5296;BME280;2670;42.720;23.336;2023-02-15T13:23:40;-22616.66;;;6.01;83.21
5296;BME280;2670;42.720;23.336;2023-02-15T13:26:11;-22620.09;;;6.12;82.61
5296;BME280;2670;42.720;23.336;2023-02-15T13:28:44;-22625.00;;;6.29;81.33
5296;BME280;2670;42.720;23.336;2023-02-15T13:31:14;-22622.31;;;6.20;81.75
5296;BME280;2670;42.720;23.336;2023-02-15T13:33:44;-22624.25;;;6.27;81.97
5296;BME280;2670;42.720;23.336;2023-02-15T13:36:20;-22621.88;;;6.18;81.14
5296;BME280;2670;42.720;23.336;2023-02-15T13:38:58;-22617.72;;;6.04;81.65
5296;BME280;2670;42.720;23.336;2023-02-15T13:41:33;-22615.03;;;5.95;81.25
5296;BME280;2670;42.720;23.336;2023-02-15T13:44:08;-22615.47;;;5.96;81.36